sensor_id;sensor_type;location;lat;lon;timestamp;pressure;altitude;pressure_sealevel;temperature;humidity
30338;BME280;17143;51.888;5.408;2023-02-01T00:04:03;101814.78;;;5.47;100.00
30338;BME280;17143;51.888;5.408;2023-02-01T00:19:06;101812.03;;;5.75;100.00
30338;BME280;17143;51.888;5.408;2023-02-01T00:34:10;101810.06;;;5.72;100.00
30338;BME280;17143;51.888;5.408;2023-02-01T00:49:13;101803.44;;;5.56;100.00
30338;BME280;17143;51.888;5.408;2023-02-01T01:04:15;101816.88;;;5.62;100.00
30338;BME280;17143;51.888;5.408;2023-02-01T01:19:17;101806.38;;;5.50;100.00
30338;BME280;17143;51.888;5.408;2023-02-01T01:34:19;101793.66;;;5.43;100.00
30338;BME280;17143;51.888;5.408;2023-02-01T01:49:24;101795.16;;;5.31;100.00
30338;BME280;17143;51.888;5.408;2023-02-01T02:04:28;101775.13;;;5.28;100.00
30338;BME280;17143;51.888;5.408;2023-02-01T02:35:10;101756.63;;;5.42;100.00
30338;BME280;17143;51.888;5.408;2023-02-01T02:50:20;101741.19;;;5.73;100.00
30338;BME280;17143;51.888;5.408;2023-02-01T03:05:25;101745.59;;;5.74;100.00
30338;BME280;17143;51.888;5.408;2023-02-01T03:20:28;101712.84;;;5.93;100.00
30338;BME280;17143;51.888;5.408;2023-02-01T03:35:37;101714.91;;;6.07;100.00
30338;BME280;17143;51.888;5.408;2023-02-01T03:50:44;101720.09;;;6.07;100.00
30338;BME280;17143;51.888;5.408;2023-02-01T04:05:48;101721.91;;;5.98;100.00
30338;BME280;17143;51.888;5.408;2023-02-01T04:20:50;101740.38;;;5.92;100.00
30338;BME280;17143;51.888;5.408;2023-02-01T04:35:52;101731.78;;;6.22;100.00
30338;BME280;17143;51.888;5.408;2023-02-01T04:50:54;101709.13;;;6.30;100.00
30338;BME280;17143;51.888;5.408;2023-02-01T05:05:56;101709.50;;;6.44;100.00
30338;BME280;17143;51.888;5.408;2023-02-01T05:20:58;101683.63;;;6.44;100.00
30338;BME280;17143;51.888;5.408;2023-02-01T05:36:00;101709.78;;;6.27;100.00
30338;BME280;17143;51.888;5.408;2023-02-01T05:51:02;101724.25;;;6.45;100.00
30338;BME280;17143;51.888;5.408;2023-02-01T06:06:05;101729.69;;;6.58;100.00
30338;BME280;17143;51.888;5.408;2023-02-01T06:21:07;101716.22;;;6.62;100.00
30338;BME280;17143;51.888;5.408;2023-02-01T06:36:11;101733.56;;;6.53;100.00
30338;BME280;17143;51.888;5.408;2023-02-01T06:51:23;101733.03;;;6.57;100.00
30338;BME280;17143;51.888;5.408;2023-02-01T07:06:26;101744.19;;;6.56;100.00
30338;BME280;17143;51.888;5.408;2023-02-01T07:21:28;101746.78;;;6.56;100.00
30338;BME280;17143;51.888;5.408;2023-02-01T07:36:30;101738.22;;;6.57;100.00
30338;BME280;17143;51.888;5.408;2023-02-01T07:51:32;101742.75;;;6.60;100.00
30338;BME280;17143;51.888;5.408;2023-02-01T08:06:34;101745.75;;;6.64;100.00
30338;BME280;17143;51.888;5.408;2023-02-01T08:21:36;101759.03;;;6.89;100.00
30338;BME280;17143;51.888;5.408;2023-02-01T08:36:38;101751.25;;;7.31;100.00
30338;BME280;17143;51.888;5.408;2023-02-01T08:51:41;101745.78;;;8.35;100.00
30338;BME280;17143;51.888;5.408;2023-02-01T09:06:43;101740.75;;;9.87;92.11
30338;BME280;17143;51.888;5.408;2023-02-01T09:21:45;101746.94;;;9.41;91.97
30338;BME280;17143;51.888;5.408;2023-02-01T09:36:47;101719.94;;;8.81;95.58
30338;BME280;17143;51.888;5.408;2023-02-01T09:51:51;101721.00;;;9.66;92.24
30338;BME280;17143;51.888;5.408;2023-02-01T10:07:05;101752.91;;;8.71;97.45
30338;BME280;17143;51.888;5.408;2023-02-01T10:22:17;101739.81;;;8.36;99.15
30338;BME280;17143;51.888;5.408;2023-02-01T10:37:27;101720.97;;;8.17;100.00
30338;BME280;17143;51.888;5.408;2023-02-01T10:52:38;101710.94;;;8.10;100.00
30338;BME280;17143;51.888;5.408;2023-02-01T11:07:46;101696.28;;;8.22;100.00
30338;BME280;17143;51.888;5.408;2023-02-01T11:22:54;101677.16;;;8.31;100.00
30338;BME280;17143;51.888;5.408;2023-02-01T11:37:59;101681.69;;;8.34;100.00
30338;BME280;17143;51.888;5.408;2023-02-01T11:53:15;101689.69;;;8.04;100.00
30338;BME280;17143;51.888;5.408;2023-02-01T12:08:34;101671.88;;;8.08;100.00
30338;BME280;17143;51.888;5.408;2023-02-01T12:23:49;101663.69;;;8.25;100.00
30338;BME280;17143;51.888;5.408;2023-02-01T12:39:02;101659.59;;;8.50;100.00
30338;BME280;17143;51.888;5.408;2023-02-01T12:54:12;101648.22;;;8.83;100.00
30338;BME280;17143;51.888;5.408;2023-02-01T13:09:24;101661.19;;;9.06;100.00
30338;BME280;17143;51.888;5.408;2023-02-01T13:24:36;101659.56;;;9.32;96.91
30338;BME280;17143;51.888;5.408;2023-02-01T13:39:48;101658.44;;;9.16;96.66
30338;BME280;17143;51.888;5.408;2023-02-01T13:55:13;101655.97;;;9.06;96.67
30338;BME280;17143;51.888;5.408;2023-02-01T14:10:47;101670.69;;;8.94;98.10
30338;BME280;17143;51.888;5.408;2023-02-01T14:26:16;101679.94;;;8.91;98.09
30338;BME280;17143;51.888;5.408;2023-02-01T14:41:29;101666.59;;;8.98;98.37
30338;BME280;17143;51.888;5.408;2023-02-01T14:56:32;101682.88;;;8.95;98.87
30338;BME280;17143;51.888;5.408;2023-02-01T15:12:01;101678.56;;;8.84;100.00
30338;BME280;17143;51.888;5.408;2023-02-01T15:27:04;101695.44;;;8.89;100.00
30338;BME280;17143;51.888;5.408;2023-02-01T15:42:11;101679.03;;;8.90;100.00
30338;BME280;17143;51.888;5.408;2023-02-01T15:57:19;101709.97;;;8.87;100.00
30338;BME280;17143;51.888;5.408;2023-02-01T16:12:29;101721.97;;;8.85;100.00
30338;BME280;17143;51.888;5.408;2023-02-01T16:27:32;101735.63;;;8.83;100.00
30338;BME280;17143;51.888;5.408;2023-02-01T16:42:34;101735.16;;;8.77;100.00
30338;BME280;17143;51.888;5.408;2023-02-01T16:57:39;101744.09;;;8.80;100.00
30338;BME280;17143;51.888;5.408;2023-02-01T17:12:41;101768.25;;;8.79;100.00
30338;BME280;17143;51.888;5.408;2023-02-01T17:27:43;101779.78;;;8.83;100.00
30338;BME280;17143;51.888;5.408;2023-02-01T17:42:46;101782.28;;;8.81;100.00
30338;BME280;17143;51.888;5.408;2023-02-01T17:57:48;101778.88;;;8.82;100.00
30338;BME280;17143;51.888;5.408;2023-02-01T18:12:50;101792.44;;;8.78;100.00
30338;BME280;17143;51.888;5.408;2023-02-01T18:27:53;101771.00;;;8.81;100.00
30338;BME280;17143;51.888;5.408;2023-02-01T18:42:56;101789.94;;;8.80;100.00
30338;BME280;17143;51.888;5.408;2023-02-01T18:57:58;101807.34;;;8.81;100.00
30338;BME280;17143;51.888;5.408;2023-02-01T19:13:00;101811.88;;;8.83;100.00
30338;BME280;17143;51.888;5.408;2023-02-01T19:28:02;101803.28;;;8.84;100.00
30338;BME280;17143;51.888;5.408;2023-02-01T19:43:04;101805.56;;;8.91;100.00
30338;BME280;17143;51.888;5.408;2023-02-01T19:58:07;101798.59;;;9.02;100.00
30338;BME280;17143;51.888;5.408;2023-02-01T20:13:09;101803.09;;;9.04;100.00
30338;BME280;17143;51.888;5.408;2023-02-01T20:28:11;101829.09;;;9.04;100.00
30338;BME280;17143;51.888;5.408;2023-02-01T20:43:13;101830.25;;;9.08;100.00
30338;BME280;17143;51.888;5.408;2023-02-01T20:58:15;101848.53;;;9.09;100.00
30338;BME280;17143;51.888;5.408;2023-02-01T21:13:17;101858.94;;;9.09;100.00
30338;BME280;17143;51.888;5.408;2023-02-01T21:28:19;101867.28;;;9.05;100.00
30338;BME280;17143;51.888;5.408;2023-02-01T21:43:21;101878.34;;;9.03;100.00
30338;BME280;17143;51.888;5.408;2023-02-01T21:58:23;101893.06;;;9.02;100.00
30338;BME280;17143;51.888;5.408;2023-02-01T22:13:25;101911.00;;;8.99;100.00
30338;BME280;17143;51.888;5.408;2023-02-01T22:28:27;101911.78;;;8.98;100.00
30338;BME280;17143;51.888;5.408;2023-02-01T22:43:30;101916.41;;;8.91;100.00
30338;BME280;17143;51.888;5.408;2023-02-01T22:58:32;101913.53;;;8.76;100.00
30338;BME280;17143;51.888;5.408;2023-02-01T23:13:35;101926.81;;;8.69;100.00
30338;BME280;17143;51.888;5.408;2023-02-01T23:28:38;101943.72;;;8.64;100.00
30338;BME280;17143;51.888;5.408;2023-02-01T23:43:40;101940.78;;;8.60;100.00
30338;BME280;17143;51.888;5.408;2023-02-01T23:58:42;101929.81;;;8.42;100.00
